Tiempo atmosférico en la estación meteorológica de La Victoria de Acentejo, Santa Cruz de Tenerife (567 m.)



Fecha
DESCASC
Temp. máxima en grados centígrados (hora)
DESCASC
Temp. mínima en grados centígrados (hora)
DESCASC
Temp. media en grados centígrados
DESCASC
Racha de viento máxima en m/sg (hora)
DESCASC
Velocidad máxima media en intervalos de 10 minutos(hora)
DESCASC
Precipitaciones diarias en mm
DESCASC
Precipitaciones de 00:00 a 06:00 en mm
DESCASC
Precipitaciones de 06:00 a 12:00 en mm
DESCASC
Precipitaciones de 12:00 a 18:00 en mm
DESCASC
Precipitaciones de 18:00 a 24:00 en mm
DESCASC
22-11-2020 24.5 (13:00) 15.9 (20:30) 20.2 16.94 (05:40) 8.61 (06:30) 0 0 0 0 0
21-11-2020 23.4 (10:40) 15.4 (07:00) 19.4 12.5 (21:20) 5.56 (21:20) 0 0 0 0 0
20-11-2020 23.8 (15:20) 13.9 (03:50) 18.8 6.11 (11:40) 3.06 (01:50) 0 0 0 0 0
19-11-2020 21.7 (15:10) 13.4 (00:00) 17.6 6.67 (04:10) 4.17 (04:20) 0 0 0 0 0
18-11-2020 27.1 (10:50) 13.7 (00:00) 20.4 7.78 (06:10) 6.11 (06:40) 0 0 0 0 0
17-11-2020 28.8 (13:50) 18.7 (00:00) 23.8 7.22 (21:10) 5 (20:50) 0 0 0 0 0
16-11-2020 24.5 (16:50) 16.2 (00:00) 20.4 5.83 (04:10) 3.61 (18:50) 0 0 0 0 0
15-11-2020 23.9 (16:50) 17 (00:00) 20.4 6.11 (01:40) 4.17 (02:50) 0 0 0 0 0
14-11-2020 27.8 (11:50) 17.5 (00:00) 22.6 8.89 (02:30) 4.17 (07:00) 0 0 0 0 0
13-11-2020 26.2 (11:10) 17.8 (00:00) 22 12.22 (11:20) 5.28 (12:00) 0 0 0 0 0
12-11-2020 25.3 (11:40) 15.6 (00:00) 20.4 8.33 (01:30) 5.56 (01:40) 0 0 0 0 0
11-11-2020 19.7 (13:40) 12 (00:00) 15.9 5 (14:50) 3.61 (00:40) 0 0 0 0 0
10-11-2020 20.9 (13:40) 11.1 (00:00) 16 5.83 (07:10) 4.44 (07:40) 0 0 0 0 0
09-11-2020 19.6 (15:30) 12.8 (00:00) 16.2 7.78 (19:50) 4.72 (19:40) 0 0 0 0 0
08-11-2020 18.5 (10:40) 11.9 (00:00) 15.2 5.28 (03:10) 4.17 (22:00) 0 0 0 0 0
07-11-2020 19.4 (12:40) 11.7 (00:00) 15.5 7.22 (06:10) 5.28 (07:00) 0 0 0 0 0
06-11-2020 19.2 (12:00) 12.2 (00:00) 15.7 11.39 (09:10) 5 (12:50) 0.8 0 0.8 0 0
05-11-2020 17.5 (14:50) 12.6 (00:00) 15.1 6.39 (18:30) 4.72 (23:20) 2 1 0 1 0
04-11-2020 17.8 (11:30) 13.3 (00:00) 15.5 8.89 (15:10) 4.17 (12:20) 17.6 0 0.4 6.8 10.4
03-11-2020 20.3 (13:00) 15.4 (00:00) 17.8 8.61 (14:10) 5.28 (14:10) 0 0 0 0 0
02-11-2020 23.9 (12:30) 15.2 (00:00) 19.5 6.67 (22:50) 3.61 (13:00) 0 0 0 0 0
01-11-2020 28.1 (14:10) 22.1 (00:00) 25.1 17.78 (07:00) 10.28 (07:40) 0 0 0 0 0
31-10-2020 28.2 (13:10) 14.3 (00:00) 21.3 17.5 (20:20) 10.83 (20:00) 0 0 0 0 0
30-10-2020 19.4 (10:10) 13.3 (00:00) 16.3 6.11 (05:10) 4.44 (05:20) 0 0 0 0 0
29-10-2020 18.7 (14:30) 14.6 (00:00) 16.7 5.28 (22:10) 4.17 (20:20) 0 0 0 0 0
28-10-2020 18.2 (13:00) 14.8 (00:00) 16.5 7.5 (13:10) 4.17 (14:50) 0.4 0 0 0 0.4
27-10-2020 19.9 (15:30) 13.5 (00:00) 16.7 7.22 (01:10) 5 (04:30) 0 0 0 0 0
26-10-2020 20.2 (14:30) 13.1 (00:00) 16.7 7.22 (12:10) 4.72 (23:00) 0 0 0 0 0

Gráficas

Temp. máximas Temp. mínimas Temp. medias Precipitaciones Rachas de viento máximas Velocidades máximas media en intervalos de 10 minutos

Datos horarios

Fecha y hora oficial Temperatura (ºC) Velocidad del viento (km/h) Dirección del viento Racha (km/h) Dirección de racha Precipitación (mm) Presión (hPa) Tendencia (hPa) Humedad (%)
2020-11-24 23:00:00 15.6 8 Sur 15 Sur 0 -- -- 35
2020-11-24 22:00:00 17 11 Sur 15 Sur 0 -- -- 33
2020-11-24 21:00:00 16.3 11 Sur 16 Sur 0 -- -- 35
2020-11-24 20:00:00 16.1 12 Sur 14 Sur 0 -- -- 42
2020-11-24 19:00:00 16.9 12 Sur 14 Sur 0 -- -- 44
2020-11-24 18:00:00 18.2 2 Norte 8 Norte 0 -- -- 55
2020-11-24 17:00:00 21.8 3 Noroeste 10 Norte 0 -- -- 30
2020-11-24 16:00:00 20.9 4 Norte 7 Norte 0 -- -- 42
2020-11-24 15:00:00 20.7 3 Norte 12 Noroeste 0 -- -- 42
2020-11-24 14:00:00 22.8 3 Oeste 12 Noroeste 0 -- -- 34
2020-11-24 13:00:00 22.2 5 Noroeste 12 Oeste 0 -- -- 34
2020-11-24 12:00:00 22.8 7 Noroeste 14 Noroeste 0 -- -- 28
2020-11-24 11:00:00 21.4 2 Sudoeste 9 Oeste 0 -- -- 29
2020-11-24 10:00:00 22.4 3 Noroeste 12 Sur 0 -- -- 27
2020-11-24 09:00:00 18.6 8 Sur 18 Sur 0 -- -- 35
2020-11-24 08:00:00 17.5 12 Sur 18 Sur 0 -- -- 37
2020-11-24 07:00:00 16.6 14 Sur 19 Sur 0 -- -- 40
2020-11-24 06:00:00 15.5 8 Sur 14 Sur 0 -- -- 47
2020-11-24 05:00:00 14.3 10 Sur 14 Sur 0 -- -- 58
2020-11-24 04:00:00 14.2 8 Sur 13 Sudeste 0 -- -- 63
2020-11-24 03:00:00 14.2 7 Sur 13 Sudeste 0 -- -- 63
2020-11-24 02:00:00 14.7 8 Sudeste 14 Sur 0 -- -- 61
2020-11-24 01:00:00 14.4 6 Sur 15 Sudeste 0 -- -- 65
2020-11-24 00:00:00 15.3 5 Sur 16 Sur 0 -- -- 61
2020-11-23 23:00:00 14.9 9 Sudeste 17 Sur 0 -- -- 62
2020-11-23 22:00:00 14.7 11 Sudeste 17 Sudeste 0 -- -- 57
2020-11-23 21:00:00 15.1 4 Sudeste 17 Sudeste 0 -- -- 54
2020-11-23 20:00:00 15.4 12 Sudeste 15 Sur 0 -- -- 49
2020-11-23 19:00:00 16.5 10 Sur 13 Sur 0 -- -- 47
2020-11-23 18:00:00 19.5 0 Calma 10 Noroeste 0 -- -- 49
2020-11-23 17:00:00 22 4 Nordeste 12 Noroeste 0 -- -- 38
2020-11-23 16:00:00 21.9 9 Noroeste 14 Noroeste 0 -- -- 42
2020-11-23 15:00:00 21.9 11 Noroeste 17 Noroeste 0 -- -- 43
2020-11-23 14:00:00 23.5 8 Norte 18 Noroeste 0 -- -- 33
2020-11-23 13:00:00 22.8 6 Norte 12 Noroeste 0 -- -- 34
2020-11-23 12:00:00 22.6 4 Noroeste 13 Noroeste 0 -- -- 33
2020-11-23 11:00:00 22.5 7 Noroeste 13 Noroeste 0 -- -- 31
2020-11-23 10:00:00 21.1 5 Sudoeste 16 Oeste 0 -- -- 33
2020-11-23 09:00:00 19.8 9 Oeste 20 Sudoeste 0 -- -- 35
2020-11-23 08:00:00 17.1 8 Sudoeste 14 Sur 0 -- -- 41
2020-11-23 07:00:00 15.8 11 Sur 17 Sur 0 -- -- 48
2020-11-23 06:00:00 14.9 11 Sur 17 Sur 0 -- -- 55
2020-11-23 05:00:00 14.3 11 Sudeste 17 Sudeste 0 -- -- 54
2020-11-23 04:00:00 14.8 12 Sudeste 17 Sur 0 -- -- 53
2020-11-23 03:00:00 15.4 9 Sur 17 Sudeste 0 -- -- 51
2020-11-23 02:00:00 16 8 Sur 12 Sur 0 -- -- 53
2020-11-23 01:00:00 16.7 7 Sur 16 Oeste 0 -- -- 52
2020-11-23 00:00:00 18 7 Sudoeste 19 Sur 0 -- -- 46
2020-11-22 23:00:00 16.6 4 Este 10 Este 0 -- -- 52
2020-11-22 22:00:00 16.1 3 Sudeste 9 Sudeste 0 -- -- 51
2020-11-22 21:00:00 17 4 Sudeste 13 Sur 0 -- -- 47
2020-11-22 20:00:00 16.5 6 Sur 9 Sur 0 -- -- 50
2020-11-22 19:00:00 16.6 5 Sudeste 10 Sur 0 -- -- 49
2020-11-22 18:00:00 18.6 3 Sur 7 Sur 0 -- -- 46
2020-11-22 17:00:00 22.5 4 Noroeste 11 Noroeste 0 -- -- 34
2020-11-22 16:00:00 23.1 6 Noroeste 12 Oeste 0 -- -- 33
2020-11-22 15:00:00 23.9 8 Noroeste 15 Noroeste 0 -- -- 31
2020-11-22 14:00:00 23.4 9 Noroeste 17 Noroeste 0 -- -- 31
2020-11-22 13:00:00 24.5 9 Noroeste 19 Noroeste 0 -- -- 29
2020-11-22 12:00:00 23.4 6 Noroeste 12 Noroeste 0 -- -- 29
2020-11-22 11:00:00 23.1 6 Oeste 26 Sur 0 -- -- 28
2020-11-22 10:00:00 21.8 17 Sur 39 Sur 0 -- -- 32
2020-11-22 09:00:00 20.3 25 Sur 60 Sur 0 -- -- 34
2020-11-22 08:00:00 18.9 27 Sur 54 Sur 0 -- -- 39
2020-11-22 07:00:00 18.8 26 Sur 52 Sur 0 -- -- 39
2020-11-22 06:00:00 19 27 Sur 61 Sur 0 -- -- 38
2020-11-22 05:00:00 18.5 25 Sur 55 Sur 0 -- -- 40
2020-11-22 04:00:00 18.8 24 Sur 48 Sur 0 -- -- 39
2020-11-22 03:00:00 18.2 5 Nordeste 18 Noroeste 0 -- -- 46
2020-11-22 02:00:00 16.6 8 Sudoeste 16 Norte 0 -- -- 67
2020-11-22 01:00:00 16.7 5 Noroeste 31 Sur 0 -- -- 76
2020-11-22 00:00:00 19.3 13 Sur 41 Oeste 0 -- -- 36
2020-11-21 23:00:00 18.8 10 Oeste 29 Sudoeste 0 -- -- 41
2020-11-21 22:00:00 19 10 Noroeste 45 Sur 0 -- -- 55
2020-11-21 21:00:00 18.6 9 Sur 32 Sudeste 0 -- -- 42
2020-11-21 20:00:00 15.6 4 Sur 12 Sur 0 -- -- 69
2020-11-21 19:00:00 15.6 5 Sur 13 Sur 0 -- -- 78
2020-11-21 18:00:00 18.8 4 Noroeste 8 Noroeste 0 -- -- 71
2020-11-21 17:00:00 20.8 5 Noroeste 10 Noroeste 0 -- -- 62
2020-11-21 16:00:00 21.5 6 Noroeste 17 Noroeste 0 -- -- 57
2020-11-21 15:00:00 22.9 8 Noroeste 17 Norte 0 -- -- 49
2020-11-21 14:00:00 23.3 7 Noroeste 16 Noroeste 0 -- -- 40
2020-11-21 13:00:00 22.5 8 Norte 14 Noroeste 0 -- -- 40
2020-11-21 12:00:00 23.2 7 Norte 13 Norte 0 -- -- 37
2020-11-21 11:00:00 22.9 7 Norte 11 Norte 0 -- -- 35
2020-11-21 10:00:00 22.6 6 Noroeste 15 Sur 0 -- -- 35
2020-11-21 09:00:00 17.4 9 Sur 15 Sur 0 -- -- 48
2020-11-21 08:00:00 16.7 9 Sur 15 Sur 0 -- -- 48
2020-11-21 07:00:00 15.4 13 Sur 15 Sudeste 0 -- -- 52
2020-11-21 06:00:00 16.4 8 Sur 14 Sur 0 -- -- 48
2020-11-21 05:00:00 20.2 12 Sur 30 Sur 0 -- -- 36
2020-11-21 04:00:00 20.3 15 Sur 23 Sur 0 -- -- 36
2020-11-21 03:00:00 19.8 14 Sur 21 Sur 0 -- -- 38
2020-11-21 02:00:00 18.1 6 Sur 13 Sur 0 -- -- 43
2020-11-21 01:00:00 18 5 Sur 11 Sur 0 -- -- 45
2020-11-21 00:00:00 16.5 2 Sudeste 12 Sur 0 -- -- 49
2020-11-20 23:00:00 15.4 4 Sur 12 Sudeste 0 -- -- 56
2020-11-20 22:00:00 16 8 Sur 13 Sur 0 -- -- 53
2020-11-20 21:00:00 15.6 5 Sur 10 Sur 0 -- -- 62
2020-11-20 20:00:00 16.8 8 Sudeste 14 Sudeste 0 -- -- 61
2020-11-20 19:00:00 16.9 4 Sudeste 10 Sur 0 -- -- 64
2020-11-20 18:00:00 20.2 3 Este 8 Noroeste 0 -- -- 69
2020-11-20 17:00:00 22.8 4 Norte 10 Noroeste 0 -- -- 63
2020-11-20 16:00:00 23.5 6 Norte 12 Norte 0 -- -- 49
2020-11-20 15:00:00 23 6 Norte 16 Noroeste 0 -- -- 46
2020-11-20 14:00:00 23.1 8 Noroeste 15 Noroeste 0 -- -- 45
2020-11-20 13:00:00 21.6 6 Noroeste 15 Oeste 0 -- -- 71
2020-11-20 12:00:00 20.5 7 Noroeste 22 Sur 0 -- -- 75
2020-11-20 11:00:00 20.4 8 Noroeste 15 Noroeste 0 -- -- 61
2020-11-20 10:00:00 20.6 6 Oeste 14 Noroeste 0 -- -- 48
2020-11-20 09:00:00 20.9 6 Sur 12 Sudoeste 0 -- -- 35
2020-11-20 08:00:00 15.8 7 Sur 11 Sur 0 -- -- 50
2020-11-20 07:00:00 15.9 5 Sudeste 11 Sur 0 -- -- 49
2020-11-20 06:00:00 15.1 2 Este 13 Sudeste 0 -- -- 59
2020-11-20 05:00:00 13.9 5 Sudeste 9 Sur 0 -- -- 85
2020-11-20 04:00:00 14.1 6 Sudeste 10 Sur 0 -- -- 65
2020-11-20 03:00:00 15.3 3 Sur 15 Sur 0 -- -- 58
2020-11-20 02:00:00 16.3 5 Sur 16 Sur 0 -- -- 49
2020-11-20 01:00:00 14.6 7 Sudeste 14 Sur 0 -- -- 64
2020-11-20 00:00:00 14.3 12 Sur 15 Sur 0 -- -- 87
2020-11-19 23:00:00 14.7 10 Sur 13 Sur 0 -- -- 85
2020-11-19 22:00:00 14.5 9 Sur 13 Sudeste 0 -- -- 87
2020-11-19 21:00:00 15.2 10 Sudeste 14 Sur 0 -- -- 82
2020-11-19 20:00:00 16.2 10 Sur 12 Sur 0 -- -- 83
2020-11-19 19:00:00 17.6 2 Sur 8 Oeste 0 -- -- 76
2020-11-19 18:00:00 19 3 Noroeste 14 Noroeste 0 -- -- 79
2020-11-19 17:00:00 20 5 Noroeste 18 Noroeste 0 -- -- 73
2020-11-19 16:00:00 20.6 9 Noroeste 17 Noroeste 0 -- -- 74
2020-11-19 15:00:00 21.3 6 Noroeste 15 Noroeste 0 -- -- 70
2020-11-19 14:00:00 21.2 6 Noroeste 18 Noroeste 0 -- -- 71
2020-11-19 13:00:00 20.8 6 Noroeste 14 Norte 0 -- -- 73
2020-11-19 12:00:00 20.1 6 Noroeste 18 Norte 0 -- -- 70
2020-11-19 11:00:00 20.7 5 Norte 13 Noroeste 0 -- -- 65
2020-11-19 10:00:00 19.7 5 Sudeste 16 Este 0 -- -- 67
2020-11-19 09:00:00 17.5 9 Sudeste 15 Este 0 -- -- 82
2020-11-19 08:00:00 16.3 7 Sudeste 14 Sur 0 -- -- 84
2020-11-19 07:00:00 15.9 7 Sudeste 17 Sudeste 0 -- -- 82
2020-11-19 06:00:00 14.7 12 Sudeste 18 Sudeste 0 -- -- 86
2020-11-19 05:00:00 13.4 13 Sudeste 24 Sur 0 -- -- 83
2020-11-19 04:00:00 14.3 14 Sudeste 22 Sudeste 0 -- -- 82
2020-11-19 03:00:00 14.7 14 Sudeste 17 Sudeste 0 -- -- 84
2020-11-19 02:00:00 14 13 Sudeste 14 Sudeste 0 -- -- 84
2020-11-19 01:00:00 14 10 Sur 15 Sur 0 -- -- 87
2020-11-19 00:00:00 13.7 10 Sur 13 Sudeste 0 -- -- 74
2020-11-18 23:00:00 15.3 10 Sur 13 Sur 0 -- -- 86
2020-11-18 22:00:00 15.3 9 Sur 11 Sur 0 -- -- 84
2020-11-18 21:00:00 16.1 6 Sur 11 Sur 0 -- -- 81
2020-11-18 20:00:00 15.2 8 Sur 11 Sur 0 -- -- 82
2020-11-18 19:00:00 17.1 4 Sur 8 Nordeste 0 -- -- 94
2020-11-18 18:00:00 18.2 0 Calma 13 Norte 0 -- -- 93
2020-11-18 17:00:00 19.2 5 Norte 12 Noroeste 0 -- -- 93
2020-11-18 16:00:00 19.6 5 Norte 14 Noroeste 0 -- -- 92
2020-11-18 15:00:00 20.2 5 Noroeste 12 Noroeste 0 -- -- 88
2020-11-18 14:00:00 20.5 6 Norte 21 Norte 0 -- -- 86
2020-11-18 13:00:00 21.7 9 Noroeste 18 Noroeste 0 -- -- 80
2020-11-18 12:00:00 23.4 8 Oeste 15 Norte 0 -- -- 40
2020-11-18 11:00:00 26.5 5 Noroeste 9 Norte 0 -- -- 33
2020-11-18 10:00:00 26.2 3 Norte 8 Norte 0 -- -- 27
2020-11-18 09:00:00 22.5 4 Sudeste 13 Noroeste 0 -- -- 33
2020-11-18 08:00:00 21.7 3 Norte 20 Sur 0 -- -- 32
2020-11-18 07:00:00 20.5 17 Sudeste 28 Sur 0 -- -- 34
2020-11-18 06:00:00 19.9 20 Sur 26 Sudeste 0 -- -- 36
2020-11-18 05:00:00 19.2 19 Sudeste 27 Sudeste 0 -- -- 38
2020-11-18 04:00:00 19.1 20 Sur 24 Sudeste 0 -- -- 38
2020-11-18 03:00:00 18.1 16 Sudeste 19 Sudeste 0 -- -- 41
2020-11-18 02:00:00 18.1 9 Sur 18 Sur 0 -- -- 43
2020-11-18 01:00:00 19.2 9 Sur 18 Sur 0 -- -- 40
2020-11-18 00:00:00 18.9 14 Sudeste 18 Sudeste 0 -- -- 41
2020-11-17 23:00:00 18.9 15 Sudeste 21 Sudeste 0 -- -- 41
2020-11-17 22:00:00 21.2 8 Sudoeste 26 Sudeste 0 -- -- 34
2020-11-17 21:00:00 21.1 17 Sur 23 Sur 0 -- -- 34
2020-11-17 20:00:00 21.4 14 Sur 19 Sur 0 -- -- 33
2020-11-17 19:00:00 20.8 6 Sudeste 10 Sudeste 0 -- -- 34
2020-11-17 18:00:00 23.1 0 Calma 11 Noroeste 0 -- -- 35
2020-11-17 17:00:00 25.9 9 Norte 17 Norte 0 -- -- 28
2020-11-17 16:00:00 26.2 11 Norte 19 Nordeste 0 -- -- 27
2020-11-17 15:00:00 27.1 10 Nordeste 19 Noroeste 0 -- -- 23
2020-11-17 14:00:00 28.5 8 Norte 14 Oeste 0 -- -- 21
2020-11-17 13:00:00 28.3 8 Noroeste 17 Noroeste 0 -- -- 22
2020-11-17 12:00:00 28.2 8 Noroeste 14 Noroeste 0 -- -- 22
2020-11-17 11:00:00 27.9 4 Noroeste 15 Norte 0 -- -- 22
2020-11-17 10:00:00 27.3 2 Noroeste 12 Sudoeste 0 -- -- 22
2020-11-17 09:00:00 22.8 5 Sudoeste 20 Sur 0 -- -- 32
2020-11-17 08:00:00 21.5 14 Sur 17 Sur 0 -- -- 30
2020-11-17 07:00:00 20.3 9 Sur 17 Sudeste 0 -- -- 36
2020-11-17 06:00:00 20.7 9 Sur 13 Sur 0 -- -- 37
2020-11-17 05:00:00 21.2 6 Sur 12 Sur 0 -- -- 37
2020-11-17 04:00:00 20.9 4 Sur 13 Sudoeste 0 -- -- 37
2020-11-17 03:00:00 23.4 7 Este 18 Este 0 -- -- 31
2020-11-17 02:00:00 21.9 7 Sur 12 Sur 0 -- -- 35
2020-11-17 01:00:00 21.7 3 Sur 10 Sur 0 -- -- 38
2020-11-17 00:00:00 20.5 4 Sur 15 Sur 0 -- -- 44
2020-11-16 23:00:00 20.8 6 Sur 12 Sur 0 -- -- 43
2020-11-16 22:00:00 21.1 7 Sudoeste 13 Sur 0 -- -- 41
2020-11-16 21:00:00 21.1 4 Sur 14 Sudeste 0 -- -- 40
2020-11-16 20:00:00 21 9 Sudeste 14 Sudeste 0 -- -- 41
2020-11-16 19:00:00 20.2 10 Sudeste 18 Sur 0 -- -- 45
2020-11-16 18:00:00 21.6 3 Sudeste 10 Norte 0 -- -- 53
2020-11-16 17:00:00 24.1 3 Noroeste 13 Noroeste 0 -- -- 75
2020-11-16 16:00:00 24 6 Oeste 14 Noroeste 0 -- -- 76
2020-11-16 15:00:00 23 5 Noroeste 13 Norte 0 -- -- 79
2020-11-16 14:00:00 23.9 4 Norte 16 Noroeste 0 -- -- 57
2020-11-16 13:00:00 23 5 Norte 17 Noroeste 0 -- -- 71
2020-11-16 12:00:00 22.4 5 Noroeste 18 Noroeste 0 -- -- 69
2020-11-16 11:00:00 22.3 5 Norte 15 Norte 0 -- -- 67
2020-11-16 10:00:00 21.5 5 Noroeste 13 Noroeste 0 -- -- 68
2020-11-16 09:00:00 19.3 4 Sudoeste 13 Sudoeste 0 -- -- 71
2020-11-16 08:00:00 17.2 5 Sudoeste 13 Sur 0 -- -- 70
2020-11-16 07:00:00 18.3 7 Sudoeste 13 Sur 0 -- -- 56
2020-11-16 06:00:00 17.9 8 Sur 16 Sur 0 -- -- 48
2020-11-16 05:00:00 17.8 3 Sur 21 Sur 0 -- -- 48
2020-11-16 04:00:00 17.8 3 Sur 13 Sur 0 -- -- 62
2020-11-16 03:00:00 17.6 4 Sur 15 Sur 0 -- -- 61
2020-11-16 02:00:00 16.6 8 Sudeste 14 Sur 0 -- -- 70
2020-11-16 01:00:00 17 5 Sudoeste 19 Sudeste 0 -- -- 67
2020-11-16 00:00:00 18.5 9 Sudeste 19 Sudeste 0 -- -- 60
2020-11-15 23:00:00 19.1 8 Sur 18 Sur 0 -- -- 52
2020-11-15 22:00:00 17.5 4 Sudeste 14 Sur 0 -- -- 62
2020-11-15 21:00:00 18.4 4 Sur 10 Sudeste 0 -- -- 64
2020-11-15 20:00:00 18.2 4 Sudeste 12 Noroeste 0 -- -- 74
2020-11-15 19:00:00 19.3 4 Sudeste 14 Sudeste 0 -- -- 78
2020-11-15 18:00:00 20.1 8 Sur 14 Noroeste 0 -- -- 77
2020-11-15 17:00:00 23.1 6 Noroeste 19 Noroeste 0 -- -- 73
2020-11-15 16:00:00 22.2 10 Noroeste 19 Noroeste 0 -- -- 79
2020-11-15 15:00:00 23.3 6 Norte 18 Norte 0 -- -- 71
2020-11-15 14:00:00 21.2 4 Noroeste 15 Noroeste 0 -- -- 80
2020-11-15 13:00:00 22.8 6 Noroeste 14 Noroeste 0 -- -- 72
2020-11-15 12:00:00 21.9 7 Noroeste 19 Noroeste 0 -- -- 75
2020-11-15 11:00:00 23.3 4 Sudoeste 19 Noroeste 0 -- -- 63
2020-11-15 10:00:00 22.2 5 Oeste 15 Noroeste 0 -- -- 61
2020-11-15 09:00:00 21.5 5 Oeste 17 Sudeste 0 -- -- 48
2020-11-15 08:00:00 18.2 9 Sur 16 Sur 0 -- -- 55
2020-11-15 07:00:00 18.2 8 Sudeste 20 Sur 0 -- -- 50
2020-11-15 06:00:00 18.8 12 Sudoeste 21 Sudoeste 0 -- -- 52
2020-11-15 05:00:00 18.5 9 Sur 16 Sudoeste 0 -- -- 55
2020-11-15 04:00:00 19.4 6 Sudeste 17 Sudeste 0 -- -- 52
2020-11-15 03:00:00 19.4 10 Sudeste 20 Sur 0 -- -- 49
2020-11-15 02:00:00 17.5 6 Este 22 Oeste 0 -- -- 72
2020-11-15 01:00:00 19.9 4 Sudeste 11 Sudeste 0 -- -- 49
2020-11-15 00:00:00 19 8 Sur 14 Sur 0 -- -- 56
2020-11-14 23:00:00 17.5 5 Sur 17 Nordeste 0 -- -- 65
2020-11-14 22:00:00 20.9 14 Sur 19 Sur 0 -- -- 41
2020-11-14 21:00:00 20.4 4 Sur 15 Sudeste 0 -- -- 50
2020-11-14 20:00:00 21.1 13 Sur 19 Sudeste 0 -- -- 42
2020-11-14 19:00:00 21.3 12 Sudeste 19 Sudeste 0 -- -- 43
2020-11-14 18:00:00 21.7 4 Norte 14 Noroeste 0 -- -- 69
2020-11-14 17:00:00 26.1 3 Norte 18 Noroeste 0 -- -- 45
2020-11-14 16:00:00 25.5 6 Norte 15 Norte 0 -- -- 54
2020-11-14 15:00:00 24 6 Norte 19 Noroeste 0 -- -- 74
2020-11-14 14:00:00 26.5 4 Este 24 Noroeste 0 -- -- 48
2020-11-14 13:00:00 25.7 6 Norte 25 Noroeste 0 -- -- 40
2020-11-14 12:00:00 24.9 8 Norte 21 Noroeste 0 -- -- 47
2020-11-14 11:00:00 26.6 6 Este 13 Noroeste 0 -- -- 27
2020-11-14 10:00:00 21.7 5 Este 14 Sur 0 -- -- 40
2020-11-14 09:00:00 21.5 3 Oeste 12 Noroeste 0 -- -- 40
2020-11-14 08:00:00 22.7 13 Sur 22 Oeste 0 -- -- 32
2020-11-14 07:00:00 19.8 15 Sur 21 Sur 0 -- -- 37
2020-11-14 06:00:00 18.9 8 Sur 17 Sudeste 0 -- -- 41
2020-11-14 05:00:00 19.9 7 Sudeste 13 Sudeste 0 -- -- 41
2020-11-14 04:00:00 20.6 7 Sur 22 Sur 0 -- -- 39
2020-11-14 03:00:00 22.2 10 Sur 32 Sur 0 -- -- 34
2020-11-14 02:00:00 20 6 Sudeste 14 Sudeste 0 -- -- 48
2020-11-14 01:00:00 19.1 5 Sur 15 Sudeste 0 -- -- 48
2020-11-14 00:00:00 18.9 10 Sudeste 15 Sur 0 -- -- 52
2020-11-13 23:00:00 18.7 6 Sudeste 13 Sur 0 -- -- 49
2020-11-13 22:00:00 19.7 6 Sur 12 Sudeste 0 -- -- 46
2020-11-13 21:00:00 19.8 4 Sur 15 Noroeste 0 -- -- 43
2020-11-13 20:00:00 21.3 7 Sur 14 Sur 0 -- -- 36
2020-11-13 19:00:00 21.1 7 Sudeste 15 Sur 0 -- -- 39
2020-11-13 18:00:00 21.2 12 Sur 15 Sudeste 0 -- -- 42
2020-11-13 17:00:00 20.2 8 Sudeste 15 Sur 0 -- -- 64
2020-11-13 16:00:00 21.9 4 Noroeste 16 Sudeste 0 -- -- 72
2020-11-13 15:00:00 21.4 9 Sur 24 Oeste 0 -- -- 63
2020-11-13 14:00:00 25.4 7 Este 16 Sur 0 -- -- 33
2020-11-13 13:00:00 20.3 7 Sur 19 Oeste 0 -- -- 73
2020-11-13 12:00:00 23.8 19 Sudoeste 44 Oeste 0 -- -- 66
2020-11-13 11:00:00 25.5 12 Sur 21 Sur 0 -- -- 35
2020-11-13 10:00:00 21.4 8 Sudoeste 14 Sudoeste 0 -- -- 47
2020-11-13 09:00:00 24 10 Sudoeste 24 Sudeste 0 -- -- 41
2020-11-13 08:00:00 18.9 10 Sur 15 Sudeste 0 -- -- 56
2020-11-13 07:00:00 18 0 Calma 12 Sur 0 -- -- 69
2020-11-13 06:00:00 17.9 6 Sur 11 Sur 0 -- -- 70
2020-11-13 05:00:00 20.9 9 Sur 15 Sudeste 0 -- -- 52
2020-11-13 04:00:00 19.5 12 Sur 14 Sudeste 0 -- -- 60
2020-11-13 03:00:00 20.6 5 Sudeste 20 Sur 0 -- -- 56
2020-11-13 02:00:00 19.4 7 Sur 13 Sur 0 -- -- 63
2020-11-13 01:00:00 19.4 7 Oeste 13 Sudeste 0 -- -- 62
2020-11-13 00:00:00 20.4 10 Sur 15 Sur 0 -- -- 60
2020-11-12 23:00:00 19 6 Oeste 12 Sudoeste 0 -- -- 64
2020-11-12 22:00:00 19 7 Sur 15 Sur 0 -- -- 65
2020-11-12 21:00:00 19.1 4 Oeste 15 Sur 0 -- -- 66
2020-11-12 20:00:00 16.8 8 Sudeste 10 Sudeste 0 -- -- 81
2020-11-12 19:00:00 17.5 0 Calma 8 Sur 0 -- -- 88
2020-11-12 18:00:00 18 0 Calma 9 Noroeste 0 -- -- 95
2020-11-12 17:00:00 19.1 3 Noroeste 15 Norte 0 -- -- 90
2020-11-12 16:00:00 19.3 4 Norte 10 Noroeste 0 -- -- 89
2020-11-12 15:00:00 19.4 6 Noroeste 14 Noroeste 0 -- -- 88
2020-11-12 14:00:00 20.7 9 Noroeste 17 Noroeste 0 -- -- 82
2020-11-12 13:00:00 20.7 7 Noroeste 15 Noroeste 0 -- -- 80
2020-11-12 12:00:00 21 7 Noroeste 12 Norte 0 -- -- 78
2020-11-12 11:00:00 22.9 4 Sur 9 Noroeste 0 -- -- 65
2020-11-12 10:00:00 22.5 0 Calma 10 Sur 0 -- -- 59
2020-11-12 09:00:00 21.2 8 Sur 17 Sur 0 -- -- 64
2020-11-12 08:00:00 18.1 11 Sur 14 Sur 0 -- -- 70
2020-11-12 07:00:00 15.9 3 Sudeste 9 Sur 0 -- -- 82
2020-11-12 06:00:00 19.2 10 Sur 14 Sur 0 -- -- 61
2020-11-12 05:00:00 18.5 9 Sur 12 Sur 0 -- -- 63
2020-11-12 04:00:00 17.3 5 Sur 19 Sur 0 -- -- 58
2020-11-12 03:00:00 15.9 7 Sudoeste 22 Sur 0 -- -- 88
2020-11-12 02:00:00 18.3 8 Sur 30 Sur 0 -- -- 49
2020-11-12 01:00:00 17.7 13 Sur 25 Sur 0 -- -- 43
2020-11-12 00:00:00 15.7 7 Sudoeste 10 Sudoeste 0 -- -- 86
2020-11-11 23:00:00 15.4 3 Sur 11 Sudeste 0 -- -- 82
2020-11-11 22:00:00 15.2 4 Sudeste 9 Sudeste 0 -- -- 86
2020-11-11 21:00:00 14.9 5 Sudeste 13 Sudeste 0 -- -- 86
2020-11-11 20:00:00 16.5 3 Oeste 6 Oeste 0 -- -- 92
2020-11-11 19:00:00 16.4 4 Nordeste 9 Nordeste 0 -- -- 92
2020-11-11 18:00:00 16.8 3 Nordeste 9 Nordeste 0 -- -- 91
2020-11-11 17:00:00 17.7 3 Norte 15 Norte 0 -- -- 85
2020-11-11 16:00:00 19.1 4 Norte 12 Norte 0 -- -- 81
2020-11-11 15:00:00 18.6 4 Oeste 18 Norte 0 -- -- 82
2020-11-11 14:00:00 19.5 5 Noroeste 14 Norte 0 -- -- 76
2020-11-11 13:00:00 18.9 5 Norte 14 Norte 0 -- -- 79
2020-11-11 12:00:00 19.6 6 Norte 13 Noroeste 0 -- -- 76
2020-11-11 11:00:00 18.4 4 Norte 10 Noroeste 0 -- -- 78
2020-11-11 10:00:00 17.5 4 Noroeste 7 Noroeste 0 -- -- 75
2020-11-11 09:00:00 16.7 0 Calma 13 Sur 0 -- -- 73
2020-11-11 08:00:00 13.8 5 Sudoeste 14 Sudeste 0 -- -- 69
2020-11-11 07:00:00 14.9 5 Oeste 12 Sudeste 0 -- -- 85
2020-11-11 06:00:00 14.6 8 Sur 13 Sur 0 -- -- 57
2020-11-11 05:00:00 15 8 Sudoeste 14 Sudeste 0 -- -- 64
2020-11-11 04:00:00 13.4 8 Sudeste 14 Sudeste 0 -- -- 69
2020-11-11 03:00:00 12.6 6 Sur 15 Sudeste 0 -- -- 79
2020-11-11 02:00:00 12.7 9 Sur 12 Sur 0 -- -- 70
2020-11-11 01:00:00 12.9 5 Sur 16 Sur 0 -- -- 73
2020-11-11 00:00:00 12 8 Sur 17 Sudeste 0 -- -- 70
2020-11-10 23:00:00 12 12 Sur 15 Sudeste 0 -- -- 66
2020-11-10 22:00:00 12.4 11 Sur 14 Sur 0 -- -- 82
2020-11-10 21:00:00 13.4 10 Sudeste 15 Sudeste 0 -- -- 84
2020-11-10 20:00:00 13.3 9 Sur 11 Sur 0 -- -- 81
2020-11-10 19:00:00 14.1 8 Sur 12 Sur 0 -- -- 83
2020-11-10 18:00:00 17.5 4 Noroeste 11 Noroeste 0 -- -- 78
2020-11-10 17:00:00 19.6 6 Noroeste 15 Noroeste 0 -- -- 69
2020-11-10 16:00:00 20.3 8 Noroeste 17 Noroeste 0 -- -- 67
2020-11-10 15:00:00 20.6 8 Noroeste 14 Norte 0 -- -- 67
2020-11-10 14:00:00 20.8 9 Norte 15 Noroeste 0 -- -- 59
2020-11-10 13:00:00 20.7 6 Noroeste 13 Noroeste 0 -- -- 61
2020-11-10 12:00:00 19.7 7 Norte 12 Norte 0 -- -- 62
2020-11-10 11:00:00 18.9 6 Noroeste 13 Noroeste 0 -- -- 69
2020-11-10 10:00:00 17.7 3 Noroeste 11 Sudeste 0 -- -- 70
2020-11-10 09:00:00 13.6 10 Sur 14 Sur 0 -- -- 64
2020-11-10 08:00:00 11.3 13 Sur 21 Sur 0 -- -- 76
2020-11-10 07:00:00 11.3 14 Sur 18 Sur 0 -- -- 87
2020-11-10 06:00:00 12.2 14 Sur 18 Sur 0 -- -- 89
2020-11-10 05:00:00 12.2 8 Sur 14 Sudeste 0 -- -- 91
2020-11-10 04:00:00 12.1 9 Sur 14 Sur 0 -- -- 84
2020-11-10 03:00:00 12.6 10 Sur 14 Sur 0 -- -- 85
2020-11-10 02:00:00 13.2 12 Sur 15 Sur 0 -- -- 84
2020-11-10 01:00:00 13.3 10 Sur 20 Sur 0 -- -- 84
2020-11-10 00:00:00 13.8 14 Sur 17 Sur 0 -- -- 83
2020-11-09 23:00:00 12.9 9 Sur 15 Sudeste 0 -- -- 87
2020-11-09 22:00:00 13.8 11 Sur 15 Sur 0 -- -- 83
2020-11-09 21:00:00 13.7 11 Sur 23 Sur 0 -- -- 80
2020-11-09 20:00:00 16.4 14 Sudeste 28 Sudeste 0 -- -- 69
2020-11-09 19:00:00 15 8 Sudeste 12 Sudeste 0 -- -- 85
2020-11-09 18:00:00 16 4 Sudoeste 11 Sudoeste 0 -- -- 90
2020-11-09 17:00:00 17.6 4 Oeste 23 Norte 0 -- -- 84
2020-11-09 16:00:00 18.7 6 Noroeste 14 Norte 0 -- -- 79
2020-11-09 15:00:00 17.7 8 Oeste 14 Oeste 0 -- -- 85
2020-11-09 14:00:00 17.5 6 Oeste 16 Sudoeste -- -- -- 89
2020-11-09 13:00:00 17.8 8 Noroeste 20 Oeste 0 -- -- 85
2020-11-09 12:00:00 18.1 5 Sudoeste 18 Nordeste 0 -- -- 79
2020-11-09 11:00:00 18.1 12 Nordeste 17 Nordeste 0 -- -- 78
2020-11-09 10:00:00 18.6 4 Noroeste 12 Sur 0 -- -- 69
2020-11-09 09:00:00 16 6 Sudeste 18 Sudeste 0 -- -- 79
2020-11-09 08:00:00 14.7 12 Sur 17 Sur 0 -- -- 80
2020-11-09 07:00:00 13.8 13 Sur 24 Sur 0 -- -- 82
2020-11-09 06:00:00 13.1 14 Sur 17 Sur 0 -- -- 85
2020-11-09 05:00:00 14 12 Sur 14 Sur 0 -- -- 85
2020-11-09 04:00:00 14.4 7 Sur 10 Sur 0 -- -- 85
2020-11-09 03:00:00 14.4 10 Sur 22 Sur 0 -- -- 81
2020-11-09 02:00:00 13 15 Sur 17 Sur 0 -- -- 81
2020-11-09 01:00:00 12.9 12 Sur 16 Sur 0 -- -- 85
2020-11-09 00:00:00 13.5 12 Sur 18 Sudeste 0 -- -- 82
2020-11-08 23:00:00 12.9 15 Sur 18 Sudeste 0 -- -- 85
2020-11-08 22:00:00 13.3 15 Sur 18 Sur 0 -- -- 85
2020-11-08 21:00:00 13.6 12 Sur 15 Sudeste 0 -- -- 85
2020-11-08 20:00:00 14.3 8 Sudeste 11 Sudeste 0 -- -- 87
2020-11-08 19:00:00 14.6 4 Sur 6 Norte 0 -- -- 88
2020-11-08 18:00:00 16.1 3 Nordeste 7 Norte 0 -- -- 83
2020-11-08 17:00:00 16.6 5 Norte 12 Norte 0 -- -- 80
2020-11-08 16:00:00 17 6 Norte 11 Norte 0 -- -- 78
2020-11-08 15:00:00 17.1 8 Norte 16 Norte 0 -- -- 78
2020-11-08 14:00:00 17.6 6 Noroeste 11 Noroeste 0 -- -- 74
2020-11-08 13:00:00 17.4 7 Noroeste 13 Noroeste 0 -- -- 70
2020-11-08 12:00:00 17.4 7 Noroeste 14 Noroeste 0 -- -- 77
2020-11-08 11:00:00 17.9 6 Norte 11 Norte 0 -- -- 72
2020-11-08 10:00:00 17.6 4 Norte 8 Sur 0 -- -- 67
2020-11-08 09:00:00 14.7 7 Sur 14 Sur 0 -- -- 76
2020-11-08 08:00:00 12.5 10 Sur 18 Sur 0 -- -- 83
2020-11-08 07:00:00 12.5 15 Sur 17 Sur 0 -- -- 82
2020-11-08 06:00:00 12.6 12 Sur 15 Sur 0 -- -- 82
2020-11-08 05:00:00 12.6 12 Sur 14 Sur 0 -- -- 82
2020-11-08 04:00:00 11.9 10 Sur 19 Sur 0 -- -- 84
2020-11-08 03:00:00 12.1 14 Sur 17 Sur 0 -- -- 84
2020-11-08 02:00:00 12.3 12 Sur 18 Sur 0 -- -- 86
2020-11-08 01:00:00 12.2 12 Sur 15 Sudeste 0 -- -- 86
2020-11-08 00:00:00 13.1 8 Sur 16 Sudeste 0 -- -- 82
2020-11-07 23:00:00 13 11 Sudeste 16 Sudeste 0 -- -- 82
2020-11-07 22:00:00 13.3 8 Sur 15 Sudeste 0 -- -- 83
2020-11-07 21:00:00 13.4 9 Sur 13 Sur 0 -- -- 86
2020-11-07 20:00:00 15.2 6 Sur 9 Sur 0 -- -- 88
2020-11-07 19:00:00 16.4 0 Calma 5 Noroeste 0 -- -- 86
2020-11-07 18:00:00 17.2 5 Noroeste 12 Norte 0 -- -- 82
2020-11-07 17:00:00 17.5 6 Noroeste 14 Norte 0 -- -- 80
2020-11-07 16:00:00 18.1 4 Norte 17 Noroeste 0 -- -- 76
2020-11-07 15:00:00 18.9 9 Norte 17 Norte 0 -- -- 71
2020-11-07 14:00:00 19.3 8 Norte 16 Noroeste 0 -- -- 67
2020-11-07 13:00:00 18.8 8 Norte 15 Noroeste 0 -- -- 66
2020-11-07 12:00:00 19.1 7 Noroeste 11 Noroeste 0 -- -- 61
2020-11-07 11:00:00 19.1 3 Nordeste 10 Noroeste 0 -- -- 58
2020-11-07 10:00:00 17.7 5 Noroeste 11 Sudeste 0 -- -- 59
2020-11-07 09:00:00 13.7 8 Sur 17 Sur 0 -- -- 74
2020-11-07 08:00:00 11.7 12 Sur 24 Sur 0 -- -- 75
2020-11-07 07:00:00 12.1 19 Sur 26 Sudeste 0 -- -- 71
2020-11-07 06:00:00 11.7 17 Sur 19 Sur 0 -- -- 76
2020-11-07 05:00:00 11.9 15 Sur 18 Sur 0 -- -- 77
2020-11-07 04:00:00 11.9 11 Sur 16 Sur 0 -- -- 76
2020-11-07 03:00:00 12.2 10 Sur 14 Sur 0 -- -- 76
2020-11-07 02:00:00 12.9 12 Sur 18 Sur 0 -- -- 76
2020-11-07 01:00:00 12 14 Sur 18 Sur 0 -- -- 85
2020-11-07 00:00:00 12.2 14 Sur 19 Sudeste 0 -- -- 84
2020-11-06 23:00:00 12.3 15 Sur 24 Sur 0 -- -- 84
2020-11-06 22:00:00 13 17 Sur 20 Sur 0 -- -- 78
2020-11-06 21:00:00 14 12 Sur 14 Sur 0 -- -- 81
2020-11-06 20:00:00 14.9 10 Sur 13 Sur 0 -- -- 82
2020-11-06 19:00:00 15.8 5 Oeste 13 Noroeste 0 -- -- 83
2020-11-06 18:00:00 16.5 8 Noroeste 19 Oeste 0 -- -- 80
2020-11-06 17:00:00 17.1 13 Noroeste 24 Noroeste 0 -- -- 82
2020-11-06 16:00:00 17.3 15 Noroeste 26 Noroeste 0 -- -- 80
2020-11-06 15:00:00 17.4 12 Noroeste 24 Noroeste 0 -- -- 82
2020-11-06 14:00:00 16.7 18 Norte 31 Noroeste 0 -- -- 87
2020-11-06 13:00:00 18.1 17 Noroeste 29 Oeste 0 -- -- 75
2020-11-06 12:00:00 19.2 14 Noroeste 27 Noroeste 0 -- -- 73
2020-11-06 11:00:00 17.8 12 Noroeste 30 Noroeste 0 -- -- 74
2020-11-06 10:00:00 15.5 12 Noroeste 41 Noroeste 0.6 -- -- 94
2020-11-06 09:00:00 15.1 15 Oeste 32 Noroeste 0.2 -- -- 93
2020-11-06 08:00:00 16.3 2 Noroeste 14 Sur 0 -- -- 76
2020-11-06 07:00:00 15 0 Calma 13 Oeste 0 -- -- 80
2020-11-06 06:00:00 15.5 6 Sudeste 17 Sudeste 0 -- -- 76
2020-11-06 05:00:00 13.2 9 Sur 17 Sur 0 -- -- 81
2020-11-06 04:00:00 14.1 13 Sur 17 Sur 0 -- -- 79
2020-11-06 03:00:00 14.2 10 Sur 19 Sur 0 -- -- 76
2020-11-06 02:00:00 14 14 Sur 19 Sur 0 -- -- 76
2020-11-06 01:00:00 13.8 17 Sudeste 23 Sur 0 -- -- 81
2020-11-06 00:00:00 13.6 8 Sur 20 Sur 0 -- -- 77
2020-11-05 23:00:00 12.8 15 Sur 18 Sudeste 0 -- -- 78
2020-11-05 22:00:00 13.3 9 Sur 15 Sur 0 -- -- 76
2020-11-05 21:00:00 13.5 10 Sur 13 Sur 0 -- -- 85
2020-11-05 20:00:00 14.6 8 Sudoeste 12 Oeste 0 -- -- 85
2020-11-05 19:00:00 15.3 7 Oeste 23 Noroeste 0 -- -- 83
2020-11-05 18:00:00 15.8 8 Noroeste 16 Oeste 0 -- -- 80
2020-11-05 17:00:00 16.9 7 Oeste 14 Oeste 0 -- -- 75
2020-11-05 16:00:00 16.3 4 Norte 20 Norte 0 -- -- 76
2020-11-05 15:00:00 17.3 11 Norte 17 Norte 0 -- -- 73
2020-11-05 14:00:00 17.2 4 Oeste 10 Oeste 0.8 -- -- 81
2020-11-05 13:00:00 15.1 2 Noroeste 17 Noroeste 0.2 -- -- 86
2020-11-05 12:00:00 16.4 9 Noroeste 13 Noroeste 0 -- -- 73
2020-11-05 11:00:00 15 6 Noroeste 14 Noroeste 0 -- -- 87
2020-11-05 10:00:00 16.6 10 Noroeste 20 Sudoeste 0 -- -- 72
2020-11-05 09:00:00 15.3 11 Sudoeste 22 Sudoeste 0 -- -- 68
2020-11-05 08:00:00 13.4 11 Sudoeste 17 Sudoeste 0 -- -- 77
2020-11-05 07:00:00 12.7 11 Sudoeste 16 Oeste 0 -- -- 80
2020-11-05 06:00:00 13.2 10 Sudoeste 16 Sudoeste 0 -- -- 79
2020-11-05 05:00:00 12.9 9 Sudoeste 13 Sudoeste 0 -- -- 85
2020-11-05 04:00:00 13.5 5 Sudoeste 14 Sudoeste 0 -- -- 87
2020-11-05 03:00:00 13.4 10 Sur 13 Sudoeste 0 -- -- 90
2020-11-05 02:00:00 13.4 11 Sur 14 Sur 0.2 -- -- 94
2020-11-05 01:00:00 13.5 6 Sudoeste 14 Sur 0.8 -- -- 96
2020-11-05 00:00:00 13.3 10 Sudoeste 13 Sudoeste 2.2 -- -- 97
2020-11-04 23:00:00 13.5 5 Sudeste 15 Nordeste 2.4 -- -- 97
2020-11-04 22:00:00 13.8 10 Nordeste 29 Nordeste 2.4 -- -- 96
2020-11-04 21:00:00 14 8 Este 15 Este 2.4 -- -- 96
2020-11-04 20:00:00 14.2 7 Sudeste 13 Este 0.6 -- -- 96
2020-11-04 19:00:00 14.5 4 Nordeste 15 Este 0.4 -- -- 96
2020-11-04 18:00:00 14.3 9 Este 15 Este 4 -- -- 97
2020-11-04 17:00:00 15.1 6 Sudeste 22 Nordeste 0.2 -- -- 97
2020-11-04 16:00:00 14.8 10 Nordeste 32 Nordeste 0.8 -- -- 98
2020-11-04 15:00:00 15.5 13 Nordeste 24 Este 0.6 -- -- 96
2020-11-04 14:00:00 16.1 8 Nordeste 23 Nordeste 1 -- -- 93
2020-11-04 13:00:00 17.6 14 Este 26 Nordeste 0.2 -- -- 90
2020-11-04 12:00:00 17.2 12 Nordeste 18 Nordeste 0 -- -- 93
2020-11-04 11:00:00 16.9 6 Este 14 Nordeste 0.4 -- -- 91
2020-11-04 10:00:00 17.2 5 Noroeste 10 Oeste 0 -- -- 85
2020-11-04 09:00:00 16.8 5 Sudoeste 20 Sudeste 0 -- -- 85
2020-11-04 08:00:00 16.3 3 Sudeste 17 Sur 0 -- -- 80
2020-11-04 07:00:00 16 6 Sudeste 13 Sur 0 -- -- 79
2020-11-04 06:00:00 15.8 4 Sur 10 Sur 0 -- -- 83
2020-11-04 05:00:00 14.8 0 Calma 10 Sur 0 -- -- 84
2020-11-04 04:00:00 16 8 Sur 10 Sur 0 -- -- 80
2020-11-04 03:00:00 15.3 9 Sur 17 Sur 0 -- -- 82
2020-11-04 02:00:00 16.9 12 Sudeste 22 Sur 0 -- -- 73
2020-11-04 01:00:00 17 9 Sudeste 22 Sudeste 0 -- -- 71
2020-11-04 00:00:00 16.4 11 Sur 26 Este 0 -- -- 70
2020-11-03 23:00:00 16.9 10 Sudeste 21 Sudeste 0 -- -- 74
2020-11-03 22:00:00 16.8 7 Sur 14 Sur 0 -- -- 77
2020-11-03 21:00:00 16.7 5 Sur 10 Sur 0 -- -- 77
2020-11-03 20:00:00 16 6 Sur 17 Este 0 -- -- 80
2020-11-03 19:00:00 17.1 5 Este 14 Este 0 -- -- 86
2020-11-03 18:00:00 17.9 8 Este 19 Nordeste 0 -- -- 80
2020-11-03 17:00:00 19.2 5 Este 21 Nordeste 0 -- -- 75
2020-11-03 16:00:00 18.3 8 Este 24 Nordeste 0 -- -- 83
2020-11-03 15:00:00 18.9 14 Nordeste 31 Nordeste 0 -- -- 81
2020-11-03 14:00:00 19.6 19 Nordeste 30 Nordeste 0 -- -- 75
2020-11-03 13:00:00 20.3 19 Nordeste 28 Nordeste 0 -- -- 74
2020-11-03 12:00:00 19.8 13 Nordeste 21 Nordeste 0 -- -- 77
2020-11-03 11:00:00 18.1 9 Nordeste 20 Nordeste 0 -- -- 86
2020-11-03 10:00:00 18.6 3 Sudoeste 8 Norte 0 -- -- 74
2020-11-03 09:00:00 17.4 4 Sudeste 18 Sudeste 0 -- -- 75
2020-11-03 08:00:00 16.1 12 Sur 17 Sudeste 0 -- -- 79
2020-11-03 07:00:00 16.6 10 Sur 16 Sudeste 0 -- -- 79
2020-11-03 06:00:00 15.8 6 Sudeste 16 Sudeste 0 -- -- 83
2020-11-03 05:00:00 16.1 4 Sudeste 14 Este 0 -- -- 87
2020-11-03 04:00:00 15.6 9 Sudeste 13 Nordeste 0 -- -- 85
2020-11-03 03:00:00 16.5 8 Sur 17 Sudeste 0 -- -- 77
2020-11-03 02:00:00 17 6 Sudeste 19 Este 0 -- -- 80
2020-11-03 01:00:00 17.6 9 Sudeste 18 Sudeste 0 -- -- 76
2020-11-03 00:00:00 16.9 11 Sudeste 20 Sudeste 0 -- -- 75
2020-11-02 23:00:00 17.2 9 Este 24 Este 0 -- -- 57
2020-11-02 22:00:00 16.1 5 Sur 16 Sudeste 0 -- -- 47
2020-11-02 21:00:00 17.3 10 Sudeste 18 Este 0 -- -- 48
2020-11-02 20:00:00 17.3 12 Sudeste 21 Sur 0 -- -- 63
2020-11-02 19:00:00 17.7 9 Sudeste 13 Sudeste 0 -- -- 56
2020-11-02 18:00:00 19 6 Sudeste 12 Nordeste 0 -- -- 63
2020-11-02 17:00:00 20.8 5 Norte 15 Norte 0 -- -- 54
2020-11-02 16:00:00 19.7 10 Nordeste 17 Nordeste 0 -- -- 70
2020-11-02 15:00:00 19.8 10 Nordeste 21 Nordeste 0 -- -- 72
2020-11-02 14:00:00 21.4 7 Nordeste 18 Este 0 -- -- 53
2020-11-02 13:00:00 21.7 13 Nordeste 19 Noroeste 0 -- -- 65
2020-11-02 12:00:00 22.9 9 Noroeste 15 Norte 0 -- -- 66
2020-11-02 11:00:00 20.9 3 Noroeste 8 Noroeste 0 -- -- 58
2020-11-02 10:00:00 21.5 0 Calma 5 Norte 0 -- -- 34
2020-11-02 09:00:00 20.5 0 Calma 15 Sudeste 0 -- -- 35
2020-11-02 08:00:00 18.1 10 Sudeste 16 Sudeste 0 -- -- 37
2020-11-02 07:00:00 16.2 13 Sur 15 Sur 0 -- -- 38
2020-11-02 06:00:00 16.9 9 Sudeste 14 Sudeste 0 -- -- 35
2020-11-02 05:00:00 17.4 12 Sur 15 Sur 0 -- -- 33
2020-11-02 04:00:00 17.3 6 Sur 12 Sudeste 0 -- -- 33
2020-11-02 03:00:00 17 5 Sur 10 Sudeste 0 -- -- 34
2020-11-02 02:00:00 17.9 3 Sudoeste 8 Oeste 0 -- -- 32
2020-11-02 01:00:00 19.9 3 Oeste 21 Sudeste 0 -- -- 31
2020-11-02 00:00:00 22.7 11 Sudeste 22 Sudeste 0 -- -- 22
2020-11-01 23:00:00 22.6 13 Sudeste 29 Sudeste 0 -- -- 22
2020-11-01 22:00:00 22.5 10 Sudeste 26 Sudeste 0 -- -- 22
2020-11-01 21:00:00 23.2 18 Sudeste 29 Sudeste 0 -- -- 20
2020-11-01 20:00:00 23.4 20 Sudeste 33 Sudeste 0 -- -- 20
2020-11-01 19:00:00 23.7 20 Sudeste 37 Sur 0 -- -- 19
2020-11-01 18:00:00 24.1 23 Sur 44 Sur 0 -- -- 19
2020-11-01 17:00:00 25.6 26 Sur 48 Sur 0 -- -- 19
2020-11-01 16:00:00 26.4 25 Sur 48 Sudeste 0 -- -- 19
2020-11-01 15:00:00 27.3 27 Sudeste 46 Sudeste 0 -- -- 20
2020-11-01 14:00:00 27.8 24 Sur 57 Sur 0 -- -- 20
2020-11-01 13:00:00 27.3 28 Sur 53 Sur 0 -- -- 20
2020-11-01 12:00:00 26.8 33 Sur 53 Sudeste 0 -- -- 19
2020-11-01 11:00:00 26 33 Sur 50 Sudeste 0 -- -- 23
2020-11-01 10:00:00 25.4 26 Sur 50 Sudeste 0 -- -- 23
2020-11-01 09:00:00 24.6 33 Sur 63 Sudeste 0 -- -- 23
2020-11-01 08:00:00 23.7 30 Sur 64 Sudeste 0 -- -- 23
2020-11-01 07:00:00 23.6 31 Sur 64 Sur 0 -- -- 23
2020-11-01 06:00:00 23.3 21 Sur 43 Sur 0 -- -- 24
2020-11-01 05:00:00 23.5 13 Sudoeste 42 Sudoeste 0 -- -- 24
2020-11-01 04:00:00 23.8 13 Sudoeste 33 Oeste 0 -- -- 26
2020-11-01 03:00:00 24.5 19 Sur 48 Sur 0 -- -- 23
2020-11-01 02:00:00 24.7 26 Sur 45 Sudeste 0 -- -- 22
2020-11-01 01:00:00 24.9 20 Sur 45 Sur 0 -- -- 22
2020-11-01 00:00:00 25.1 26 Sur 53 Sur 0 -- -- 21
2020-10-31 23:00:00 24.7 26 Sur 51 Sur 0 -- -- 23
2020-10-31 22:00:00 24.4 28 Sur 52 Sur 0 -- -- 23
2020-10-31 21:00:00 24.2 24 Sur 63 Sudeste 0 -- -- 23
2020-10-31 20:00:00 24.3 39 Sur 60 Sur 0 -- -- 23
2020-10-31 19:00:00 24.4 36 Sur 59 Sur 0 -- -- 23
2020-10-31 18:00:00 25.1 30 Sudeste 58 Sudeste 0 -- -- 22
2020-10-31 17:00:00 26.4 20 Sur 50 Sur 0 -- -- 21
2020-10-31 16:00:00 25.6 8 Noroeste 17 Norte 0 -- -- 34
2020-10-31 15:00:00 27.3 8 Noroeste 20 Norte 0 -- -- 23
2020-10-31 14:00:00 27.3 6 Noroeste 16 Noroeste 0 -- -- 22
2020-10-31 13:00:00 27.8 8 Noroeste 14 Noroeste 0 -- -- 22
2020-10-31 12:00:00 27.8 6 Oeste 15 Noroeste 0 -- -- 24
2020-10-31 11:00:00 27.1 9 Noroeste 14 Oeste 0 -- -- 24
2020-10-31 10:00:00 26.2 3 Sudoeste 15 Sur 0 -- -- 22
2020-10-31 09:00:00 22.3 10 Sur 17 Sur 0 -- -- 33
2020-10-31 08:00:00 20.4 3 Sur 17 Sur 0 -- -- 34
2020-10-31 07:00:00 21.6 5 Sudeste 24 Oeste 0 -- -- 29
2020-10-31 06:00:00 24.2 10 Oeste 33 Sudoeste 0 -- -- 21
2020-10-31 05:00:00 22.5 10 Oeste 30 Sudoeste 0 -- -- 26
2020-10-31 04:00:00 19.3 3 Sur 20 Este 0 -- -- 35
2020-10-31 03:00:00 20.1 10 Este 27 Este 0 -- -- 35
2020-10-31 02:00:00 15.8 3 Sudoeste 15 Este 0 -- -- 76
2020-10-31 01:00:00 14.7 3 Sur 12 Sudeste 0 -- -- 80
2020-10-31 00:00:00 14.3 6 Sudeste 13 Sudeste 0 -- -- 88
2020-10-30 23:00:00 14.6 4 Sur 12 Sur 0 -- -- 95
2020-10-30 22:00:00 15 4 Sur 12 Sudeste 0 -- -- 95
2020-10-30 21:00:00 14.4 5 Sur 10 Sur 0 -- -- 93
2020-10-30 20:00:00 15.8 7 Sur 9 Sudeste 0 -- -- 92
2020-10-30 19:00:00 17.3 2 Oeste 6 Sur 0 -- -- 92
2020-10-30 18:00:00 18.1 3 Norte 8 Norte 0 -- -- 91
2020-10-30 17:00:00 17.9 5 Norte 11 Norte 0 -- -- 92
2020-10-30 16:00:00 18 5 Norte 10 Norte 0 -- -- 91
2020-10-30 15:00:00 17.8 4 Norte 14 Norte 0 -- -- 89
2020-10-30 14:00:00 18.2 7 Norte 12 Norte 0 -- -- 90
2020-10-30 13:00:00 18.3 7 Norte 11 Norte 0 -- -- 90
2020-10-30 12:00:00 17.8 5 Norte 13 Norte 0 -- -- 89
2020-10-30 11:00:00 18.1 6 Norte 13 Norte 0 -- -- 87
2020-10-30 10:00:00 19.2 5 Noroeste 11 Sur 0 -- -- 74
2020-10-30 09:00:00 16.8 7 Sur 18 Sudeste 0 -- -- 80
2020-10-30 08:00:00 14 10 Sudeste 17 Sudeste 0 -- -- 88
2020-10-30 07:00:00 13.4 11 Sudeste 21 Sur 0 -- -- 87
2020-10-30 06:00:00 14.2 15 Sur 22 Sudeste 0 -- -- 85
2020-10-30 05:00:00 15 14 Sudeste 17 Sudeste 0 -- -- 83
2020-10-30 04:00:00 15.7 7 Sudeste 13 Sudeste 0 -- -- 83
2020-10-30 03:00:00 15.7 10 Sur 14 Sudeste 0 -- -- 81
2020-10-30 02:00:00 15.5 9 Sur 17 Sur 0 -- -- 80
2020-10-30 01:00:00 15.3 11 Sudeste 14 Sudeste 0 -- -- 82
2020-10-30 00:00:00 16.4 6 Sudeste 11 Este 0 -- -- 86
2020-10-29 23:00:00 16 5 Este 19 Sur 0 -- -- 80
2020-10-29 22:00:00 15.6 13 Sur 17 Sur 0 -- -- 78
2020-10-29 21:00:00 15.5 10 Sudeste 18 Sudeste 0 -- -- 78
2020-10-29 20:00:00 14.6 10 Sudeste 15 Sudeste 0 -- -- 81
2020-10-29 19:00:00 16.4 5 Este 14 Nordeste 0 -- -- 86
2020-10-29 18:00:00 16.8 6 Norte 13 Norte 0 -- -- 85
2020-10-29 17:00:00 17.2 9 Nordeste 17 Nordeste 0 -- -- 79
2020-10-29 16:00:00 18 9 Norte 17 Norte 0 -- -- 74
2020-10-29 15:00:00 18.1 7 Norte 18 Norte 0 -- -- 71
2020-10-29 14:00:00 18.6 9 Norte 15 Norte 0 -- -- 69
2020-10-29 13:00:00 17.9 7 Norte 16 Norte 0 -- -- 73
2020-10-29 12:00:00 17.4 7 Norte 16 Norte 0 -- -- 76
2020-10-29 11:00:00 17.2 6 Nordeste 13 Nordeste 0 -- -- 74
2020-10-29 10:00:00 16.9 5 Sudeste 9 Sudeste 0 -- -- 75
2020-10-29 09:00:00 16 4 Sur 6 Sur 0 -- -- 81
2020-10-29 08:00:00 15.7 5 Sudeste 12 Sur 0 -- -- 78
2020-10-29 07:00:00 15 7 Sur 9 Sur 0 -- -- 79
2020-10-29 06:00:00 15.3 4 Sudeste 9 Sudeste 0 -- -- 78
2020-10-29 05:00:00 15.3 5 Sudeste 10 Sudeste 0 -- -- 83
2020-10-29 04:00:00 15.1 8 Sur 12 Sudeste 0 -- -- 85
2020-10-29 03:00:00 15.1 9 Sur 13 Sur 0 -- -- 81
2020-10-29 02:00:00 15.1 6 Sudeste 12 Sur 0 -- -- 83
2020-10-29 01:00:00 15.2 8 Sur 14 Este 0 -- -- 84
2020-10-29 00:00:00 15.2 7 Sudeste 12 Sur 0 -- -- 86
2020-10-28 23:00:00 15.3 9 Este 16 Sudeste 0 -- -- 86
2020-10-28 22:00:00 15.3 7 Sudeste 14 Sudeste 0.2 -- -- 91
2020-10-28 21:00:00 14.8 7 Sudeste 13 Sudeste 0.2 -- -- 90
2020-10-28 20:00:00 16 3 Nordeste 11 Sur 0 -- -- 84
2020-10-28 19:00:00 15.9 9 Sur 18 Este 0 -- -- 81
2020-10-28 18:00:00 16 12 Este 20 Este 0 -- -- 83
2020-10-28 17:00:00 17.3 7 Nordeste 17 Norte 0 -- -- 74
2020-10-28 16:00:00 17.1 9 Nordeste 23 Nordeste 0 -- -- 84
2020-10-28 15:00:00 17.7 14 Nordeste 23 Norte 0 -- -- 73
2020-10-28 14:00:00 17.5 12 Nordeste 27 Nordeste 0 -- -- 74
2020-10-28 13:00:00 18.2 14 Nordeste 22 Nordeste 0 -- -- 75
2020-10-28 12:00:00 17.6 11 Nordeste 18 Nordeste 0 -- -- 69
2020-10-28 11:00:00 16.9 10 Nordeste 17 Nordeste 0 -- -- 75
2020-10-28 10:00:00 16.6 9 Nordeste 16 Nordeste 0 -- -- 72
2020-10-28 09:00:00 16.2 4 Este 14 Este 0 -- -- 79
2020-10-28 08:00:00 16 6 Este 10 Este 0 -- -- 76
2020-10-28 07:00:00 15.7 5 Sudeste 9 Sudeste 0 -- -- 82
2020-10-28 06:00:00 15.7 7 Sudeste 11 Este 0 -- -- 79
2020-10-28 05:00:00 15.6 5 Sudeste 8 Este 0 -- -- 80
2020-10-28 04:00:00 15.8 4 Sur 8 Sudeste 0 -- -- 78
2020-10-28 03:00:00 16 6 Sudeste 14 Sudeste 0 -- -- 79
2020-10-28 02:00:00 16 6 Este 12 Este 0 -- -- 84
2020-10-28 01:00:00 15.8 5 Sudeste 7 Sudeste 0 -- -- 84
2020-10-28 00:00:00 16.2 4 Sudeste 15 Sur 0 -- -- 80
2020-10-27 23:00:00 15.2 8 Sudeste 14 Sudeste 0 -- -- 80
2020-10-27 22:00:00 15.9 9 Sudeste 15 Sudeste 0 -- -- 77
2020-10-27 21:00:00 15.5 10 Sudeste 17 Sudeste 0 -- -- 80
2020-10-27 20:00:00 15.9 6 Sudeste 17 Sudeste 0 -- -- 78
2020-10-27 19:00:00 16.7 12 Este 19 Este 0 -- -- 78
2020-10-27 18:00:00 17.1 8 Este 20 Nordeste 0 -- -- 83
2020-10-27 17:00:00 18.1 10 Nordeste 22 Nordeste 0 -- -- 82
2020-10-27 16:00:00 18.7 12 Nordeste 22 Norte 0 -- -- 75
2020-10-27 15:00:00 19.6 11 Norte 20 Norte 0 -- -- 63
2020-10-27 14:00:00 19.7 9 Norte 20 Norte 0 -- -- 63
2020-10-27 13:00:00 18.6 11 Nordeste 25 Norte 0 -- -- 66
2020-10-27 12:00:00 18.2 13 Nordeste 25 Nordeste 0 -- -- 79
2020-10-27 11:00:00 18.5 10 Este 25 Este 0 -- -- 80
2020-10-27 10:00:00 18.5 10 Nordeste 17 Nordeste 0 -- -- 86
2020-10-27 09:00:00 17.2 8 Este 15 Este 0 -- -- 88
2020-10-27 08:00:00 15.6 6 Sudeste 18 Sudeste 0 -- -- 84
2020-10-27 07:00:00 14.4 15 Sudeste 18 Sudeste 0 -- -- 83
2020-10-27 06:00:00 14.9 13 Sudeste 24 Sur 0 -- -- 81
2020-10-27 05:00:00 13.6 15 Sur 22 Sur 0 -- -- 83
2020-10-27 04:00:00 14 15 Sur 21 Sudeste 0 -- -- 82
2020-10-27 03:00:00 14.8 13 Sudeste 17 Sudeste 0 -- -- 82
2020-10-27 02:00:00 15.6 11 Sudeste 26 Sur 0 -- -- 80
2020-10-27 01:00:00 14.6 17 Sudeste 20 Sudeste 0 -- -- 78
2020-10-27 00:00:00 14.8 12 Sudeste 24 Sudeste 0 -- -- 80
2020-10-26 23:00:00 14.8 17 Sur 23 Sudeste 0 -- -- 76
2020-10-26 22:00:00 15.5 13 Sur 21 Este 0 -- -- 81
2020-10-26 21:00:00 16.1 13 Sudeste 24 Sudeste 0 -- -- 80
2020-10-26 20:00:00 13.3 11 Sur 19 Sudeste 0 -- -- 77
2020-10-26 19:00:00 14.8 13 Sudeste 17 Sudeste 0 -- -- 82
2020-10-26 18:00:00 17.5 6 Nordeste 20 Nordeste 0 -- -- 81
2020-10-26 17:00:00 17.8 12 Nordeste 23 Nordeste 0 -- -- 78
2020-10-26 16:00:00 18.4 13 Nordeste 25 Norte 0 -- -- 77
2020-10-26 15:00:00 19.3 13 Norte 23 Norte 0 -- -- 75
2020-10-26 14:00:00 19.1 13 Nordeste 21 Nordeste 0 -- -- 73
2020-10-26 13:00:00 19 15 Nordeste 26 Nordeste 0 -- -- 71
2020-10-26 12:00:00 18.5 13 Nordeste 25 Nordeste 0 -- -- 75
2020-10-26 11:00:00 18.7 11 Nordeste 23 Nordeste 0 -- -- 70
2020-10-26 10:00:00 18 8 Nordeste 18 Nordeste 0 -- -- 73
2020-10-26 09:00:00 16.9 6 Sudeste 17 Este 0 -- -- 75
2020-10-26 08:00:00 15.7 8 Este 14 Sudeste 0 -- -- 85
2020-10-26 07:00:00 15.2 5 Sudeste 15 Sudeste 0 -- -- 83
2020-10-26 06:00:00 14.7 10 Sudeste 17 Sudeste 0 -- -- 84
2020-10-26 05:00:00 13.8 9 Sudeste 14 Sudeste 0 -- -- 85
2020-10-26 04:00:00 14.6 8 Sudeste 11 Sudeste 0 -- -- 84
2020-10-26 03:00:00 14.9 6 Sudeste 18 Sur 0 -- -- 83
2020-10-26 02:00:00 13.8 12 Sur 18 Sur 0 -- -- 85
2020-10-26 01:00:00 13.7 12 Sur 15 Sudeste 0 -- -- 83
2020-10-26 00:00:00 14.7 8 Sudeste 18 Sudeste 0 -- -- 84